28 Jul 2021 11:16 CDT 2021209+11:16 CDT

Overview Datums Bench Marks Data Query Site Visit Daily QC Messages Attributes

170: National Park Service - Baffin Bay

27° 17' 49" N   97° 24' 17" W
NPSBB
United States National Park Service United States National Park Service

Station Information

National Park Service - Baffin Bay
National Park Service - Baffin Bay
more pictures
 
Station Name:National Park Service - Baffin Bay
DNR ID:170
Location:27° 17' 49" N, 97° 24' 17" W

Water Level Forecasts

Latest Observations

Series Metric English Marine Observed at
Water Temperature 30.2 °C 86.4 °F 86.4 °F Jul 28 06:00 CDT
00h12m ago
Salinity 19.000 psu 19.000 psu 19.000 psu Jul 28 06:00 CDT
00h12m ago
pH 7.99 pH 7.99 pH 7.99 pH Jul 28 06:00 CDT
00h12m ago
Turbidity 13 ntu 13 ntu 13 ntu Jul 28 06:00 CDT
00h12m ago
Dissolved Oxygen 3.65 mg/L 0.000228 lb/ft3 0.000228 lb/ft3 Jul 28 06:00 CDT
00h12m ago

Maps

National Park Service - Baffin Bay
All Stations in Area
Entire Network
 

Recent Observations

Date/Time Water
Temp (°F)
Sal (psu) pH (pH) Turb (ntu) DO (lb/ft3)
Jul 28 06:00 CDT 86.4 19.000 7.99 13 0.000228
Jul 28 05:00 CDT 86.5 18.900 8.02 15 0.000255
Jul 28 04:00 CDT 86.5 18.900 8.06 27 0.000283
Jul 28 03:00 CDT 86.5 18.900 8.05 25 0.000282
Jul 28 02:00 CDT 87.4 18.900 8.06 20 0.000273
Jul 28 01:00 CDT 87.6 18.900 8.08 27 0.000305
Jul 28 00:00 CDT 87.4 18.900 8.10 14 0.000320
Jul 27 23:00 CDT 88.0 19.000 8.15 16 0.000346
Jul 27 22:00 CDT 88.9 19.000 8.14 23 0.000343
Jul 27 21:00 CDT 89.8 19.000 8.15 24 0.000361
Jul 27 20:00 CDT 90.3 19.000 8.20 30 0.000403
Jul 27 19:00 CDT 91.0 19.000 8.16 30 0.000395
Jul 27 18:00 CDT 91.6 19.000 8.20 32 0.000454
Jul 27 17:00 CDT 91.0 19.000 8.12 45 0.000360
Jul 27 16:00 CDT 90.9 19.000 8.05 62 0.000313
Jul 27 15:00 CDT 90.5 18.900 8.07 46 0.000349
Jul 27 14:00 CDT 90.0 18.900 8.03 24 0.000308
Jul 27 13:00 CDT 89.1 18.900 8.05 29 0.000313
Jul 27 12:00 CDT 88.3 18.900 8.02 16 0.000290
Jul 27 11:00 CDT 87.1 18.900 7.99 16 0.000263
Jul 27 10:00 CDT 86.5 18.900 7.98 18 0.000249
Jul 27 09:00 CDT 86.0 18.900 7.97 15 0.000232
Jul 27 08:00 CDT 85.5 18.800 7.97 13 0.000220
Jul 27 07:00 CDT 85.6 18.800 7.96 15 0.000199
Jul 27 06:00 CDT 85.8 18.800 7.98 36 0.000220

Historical Data Availability